Lawton, Oklahoma
Current Conditions -  °F | °C
As of 1:38 AM on Monday 22 Dec 2014 (Local Time) from KFSI Reporting Station
Overcast Overcast  
Wind Chill: 41°   Ceiling: 400
Heat Index: 46°   Visibility: 9mi
Dew Point: 46°   Wind: 10mph
Humidity: 100%   Direction: 140°SE
Pressure: 29.55"   Gusts: NA
Location:  34.61°N, 98.39°W
Report Text: KFSI 220738Z AUTO 14009KT 9SM OVC004 08/08 A2955 RMK AO2
Loading
Personal Weather Stations






























Interactive Weather Map New forecast layout! Learn more

10-Day Weather Forecast

Advertisements
Track Severe Weather on mobile